Flight Track Log - Related Links

Times and Time Zones

All times are in EDT time to prevent confusion due to time zone crossing. See the PDT4373 flight status page for this flight to view local times or setup timezone preferences in your user account.

Time Position Orientation Groundspeed Altitude Reporting Facility
EDT Latitude Longitude Course Direction KTS MPH feet Rate Location/Type
Tue 11:34:00 AM 42.0427 -75.9254 180° South  Level Estimated
Tue 11:35:00 AM 41.9859 -75.9269 181° South  Level FlightAware Approximate
Tue 11:36:00 AM 41.9291 -75.9285 181° South  Level FlightAware Approximate
Tue 11:37:00 AM 41.8722 -75.9300 181° South  Level FlightAware Approximate
Tue 11:38:00 AM 41.8173 -75.9105 154° Southeast  Level Estimated
Tue 11:39:00 AM 41.7623 -75.8910 160° South  Level Estimated
Tue 11:40:00 AM 41.7074 -75.8716 159° South  Level Estimated
Tue 11:41:00 AM 41.6523 -75.8525 166° South  Level FlightAware Approximate
Tue 11:42:00 AM 41.5974 -75.8331 153° Southeast  Level Estimated
Tue 11:43:00 AM 41.5424 -75.8137 161° South  Level Estimated
Tue 11:44:00 AM 41.4888 -75.7883 160° South  Level FlightAware Approximate
Tue 11:45:00 AM 41.4353 -75.7629 160° South  Level FlightAware Approximate
Tue 11:46:00 AM 41.3817 -75.7376 160° South  Level FlightAware Approximate
Tue 11:47:00 AM 41.3266 -75.7190 162° South  Level Estimated
Tue 11:48:00 AM 41.2730 -75.6939 161° South  Level FlightAware Approximate
Tue 11:49:00 AM 41.2193 -75.6688 161° South  Level FlightAware Approximate
Tue 11:50:00 AM 41.1657 -75.6438 161° South  Level FlightAware Approximate
Tue 11:51:00 AM 41.1121 -75.6188 161° South  Level FlightAware Approximate
Tue 11:52:00 AM 41.0567 -75.6016 163° South  Level Estimated
Tue 11:53:00 AM 41.0029 -75.5775 161° South  Level FlightAware Approximate
Tue 11:54:00 AM 40.9490 -75.5534 161° South  Level FlightAware Approximate
Tue 11:55:00 AM 40.8951 -75.5294 161° South  Level FlightAware Approximate
Tue 11:56:00 AM 40.8413 -75.5054 161° South  Level FlightAware Approximate
Tue 11:57:00 AM 40.7856 -75.4900 190° South  Level Estimated
Tue 11:58:00 AM 40.7288 -75.4920 182° South  Level FlightAware Approximate
Tue 11:59:00 AM 40.6720 -75.4940 182° South  Level FlightAware Approximate
Tue 12:00:00 PM 40.6152 -75.4960 182° South  Level FlightAware Approximate
Tue 12:01:00 PM 40.5602 -75.4769 187° South  Level Estimated
Tue 12:01:03 PM 40.6000 -75.4833 143° Southeast 256 295 5,600  Level Philadelphia TRACON
Tue 12:01:39 PM 40.5500 -75.5000 194° South 255 293 5,100 -400 Descending Philadelphia TRACON
Tue 12:02:00 PM 40.5043 -75.4908 191° South  Level FlightAware Approximate
Tue 12:02:33 PM 40.5000 -75.5167 194° South 246 283 5,000  Level Philadelphia TRACON
Tue 12:03:00 PM 40.4500 -75.4691 190° South  Level Estimated
Tue 12:03:28 PM 40.4333 -75.5167 180° South 235 270 5,000  Level Philadelphia TRACON
Tue 12:04:00 PM 40.3956 -75.4911 197° South  Level FlightAware Approximate
Tue 12:04:28 PM 40.3667 -75.5333 191° South 233 268 5,000  Level Philadelphia TRACON
Tue 12:05:00 PM 40.3423 -75.4654 180° South  Level Estimated
Tue 12:05:28 PM 40.3167 -75.5167 166° South 246 283 4,100  Level Philadelphia TRACON
Tue 12:06:00 PM 40.2889 -75.4398 143° Southeast  Level Estimated
Tue 12:06:28 PM 40.2500 -75.4833 159° South 234 269 4,100  Level Philadelphia TRACON
Tue 12:07:28 PM 40.1833 -75.4500 159° South 225 259 4,000 -50 Descending Philadelphia TRACON
Tue 12:08:28 PM 40.1333 -75.4167 153° Southeast 225 259 4,000 48 Level Philadelphia TRACON
Tue 12:09:34 PM 40.0667 -75.4000 169° South 225 259 4,100 48 Climbing Philadelphia TRACON
Tue 12:10:34 PM 40.0000 -75.3833 169° South 220 253 4,100  Level Philadelphia TRACON
Tue 12:11:28 PM 39.9500 -75.3667 166° South 198 228 4,100  Level Philadelphia TRACON
Tue 12:12:28 PM 39.9000 -75.3500 166° South 207 238 4,100  Level Philadelphia TRACON
Tue 12:13:34 PM 39.8333 -75.3167 159° South 208 239 4,100  Level Philadelphia TRACON
Tue 12:14:28 PM 39.7833 -75.3167 180° South 205 236 4,100 -368 Level Philadelphia TRACON
Tue 12:15:28 PM 39.7333 -75.2667 142° Southeast 206 237 3,400 -857 Descending Philadelphia TRACON
Tue 12:16:34 PM 39.7333 -75.2000 90° East 175 201 2,300 -694 Descending Philadelphia TRACON
Tue 12:17:29 PM 39.7667 -75.1833 21° North 173 199 2,000 -446 Descending Philadelphia TRACON
Tue 12:18:35 PM 39.8167 -75.2000 346° North 155 178 1,400 -667 Descending Philadelphia TRACON
Tue 12:19:35 PM 39.8500 -75.2167 339° North 122 140 600 -800 Descending Philadelphia TRACON

Login

Don't have an account? Register now (free) for customized features, flight alerts, and more!